createdAt,value
2023-02-05T00:00:42.499Z,103043.09
2023-02-05T00:03:13.030Z,103044.75
2023-02-05T00:05:42.413Z,103046.56
2023-02-05T00:08:11.453Z,103050.31
2023-02-05T00:10:43.724Z,103055.69
2023-02-05T00:13:12.723Z,103059.31
2023-02-05T00:15:42.294Z,103055.81
2023-02-05T00:18:12.977Z,103060.69
2023-02-05T00:20:42.185Z,103050.13
2023-02-05T00:23:12.947Z,103046.91
2023-02-05T00:25:43.980Z,103040.38
2023-02-05T00:28:13.661Z,103037.19
2023-02-05T00:30:43.270Z,103037.38
2023-02-05T00:33:15.171Z,103035.03
2023-02-05T00:35:46.152Z,103032.19
2023-02-05T00:38:15.385Z,103035.22
2023-02-05T00:40:48.440Z,103040.91
2023-02-05T00:43:17.867Z,103037.28
2023-02-05T00:45:47.087Z,103038.88
2023-02-05T00:48:17.799Z,103037.28
2023-02-05T00:50:48.943Z,103046.59
2023-02-05T00:53:20.934Z,103038.44
2023-02-05T00:55:53.696Z,103048.06
2023-02-05T00:58:23.297Z,103056.22
2023-02-05T01:00:53.062Z,103052.44
2023-02-05T01:03:28.661Z,103053.88
2023-02-05T01:05:57.949Z,103050.16
2023-02-05T01:08:27.185Z,103058.56
2023-02-05T01:10:56.942Z,103061.78
2023-02-05T01:13:26.116Z,103055.72
2023-02-05T01:15:55.419Z,103051.72
2023-02-05T01:18:26.348Z,103042.63
2023-02-05T01:20:55.600Z,103038.00
2023-02-05T01:23:24.885Z,103033.91
2023-02-05T01:25:55.839Z,103031.75
2023-02-05T01:28:25.244Z,103024.41
2023-02-05T01:30:57.183Z,103021.22
2023-02-05T01:33:27.701Z,103021.84
2023-02-05T01:35:58.914Z,103017.47
2023-02-05T01:38:27.876Z,103012.84
2023-02-05T01:40:56.758Z,102999.03
2023-02-05T01:43:25.958Z,102998.78
2023-02-05T01:46:20.753Z,102992.84
2023-02-05T01:48:59.286Z,102770.47
2023-02-05T01:51:34.980Z,102991.81
2023-02-05T01:54:05.129Z,102991.16
2023-02-05T01:56:39.973Z,102986.41
2023-02-05T01:59:14.367Z,102978.53
2023-02-05T02:01:45.144Z,102980.63
2023-02-05T02:04:29.547Z,102980.34
2023-02-05T02:06:59.043Z,102984.63
2023-02-05T02:09:28.593Z,102985.50
2023-02-05T02:11:59.898Z,102981.78
2023-02-05T02:14:32.345Z,102979.97
2023-02-05T02:17:05.958Z,102976.25
2023-02-05T02:19:45.620Z,102767.16
2023-02-05T02:22:50.255Z,102965.44
2023-02-05T02:25:50.684Z,102969.28
2023-02-05T02:28:28.182Z,102965.03
2023-02-05T02:31:12.978Z,102958.06
2023-02-05T02:33:49.577Z,102954.56
2023-02-05T02:36:24.160Z,102947.13
2023-02-05T02:38:59.743Z,102950.22
2023-02-05T02:41:41.021Z,102951.66
2023-02-05T02:44:21.370Z,102941.34
2023-02-05T02:46:57.320Z,102942.38
2023-02-05T02:49:34.734Z,102938.16
2023-02-05T02:52:08.620Z,102931.84
2023-02-05T02:54:41.312Z,102934.28
2023-02-05T02:57:14.618Z,102937.63
2023-02-05T02:59:49.837Z,102946.53
2023-02-05T03:02:19.586Z,102935.78
2023-02-05T03:04:55.641Z,102930.41
2023-02-05T03:07:31.661Z,102933.91
2023-02-05T03:10:08.344Z,102928.34
2023-02-05T03:12:37.988Z,102929.13
2023-02-05T03:15:14.556Z,102930.16
2023-02-05T03:17:50.430Z,102934.53
2023-02-05T03:20:27.366Z,102939.97
2023-02-05T03:22:59.531Z,102932.63
2023-02-05T03:25:35.090Z,102935.97
2023-02-05T03:28:05.967Z,102936.78
2023-02-05T03:30:49.049Z,102924.53
2023-02-05T03:46:52.211Z,102920.41
2023-02-05T03:49:32.259Z,102924.91
2023-02-05T03:52:10.965Z,102935.34
2023-02-05T03:54:47.991Z,102935.13
2023-02-05T03:57:28.402Z,102934.09
2023-02-05T04:00:01.345Z,102933.81
2023-02-05T04:02:38.354Z,102936.78
2023-02-05T04:05:12.296Z,102942.72
2023-02-05T04:07:46.074Z,102940.91
2023-02-05T04:10:17.832Z,102957.28
2023-02-05T04:12:47.654Z,102945.44
2023-02-05T04:15:17.048Z,102946.44
2023-02-05T04:17:51.375Z,102953.03
2023-02-05T04:20:43.412Z,102952.34
2023-02-05T04:23:12.491Z,102955.47
2023-02-05T04:25:44.788Z,102953.41
2023-02-05T04:28:22.862Z,102948.13
2023-02-05T04:30:52.107Z,102950.69
2023-02-05T04:33:24.425Z,102956.53
2023-02-05T04:35:59.649Z,102961.41
2023-02-05T04:38:28.907Z,102962.97
2023-02-05T04:41:02.594Z,102961.16
2023-02-05T04:43:37.461Z,102975.63
2023-02-05T04:46:13.356Z,102985.25
2023-02-05T04:48:44.068Z,102970.69
2023-02-05T04:51:19.087Z,102973.16
2023-02-05T04:54:03.550Z,102973.94
2023-02-05T04:56:33.841Z,102975.06
2023-02-05T04:59:05.605Z,102976.63
2023-02-05T05:01:34.878Z,102978.19
2023-02-05T05:04:05.556Z,102978.06
2023-02-05T05:06:40.670Z,102980.91
2023-02-05T05:09:11.595Z,102974.03
2023-02-05T05:11:47.321Z,102976.53
2023-02-05T05:14:18.408Z,102977.03
2023-02-05T05:16:53.299Z,102968.16
2023-02-05T05:19:26.701Z,102960.16
2023-02-05T05:21:58.186Z,102962.72
2023-02-05T05:24:27.195Z,102961.69
2023-02-05T05:27:00.536Z,102965.03
2023-02-05T05:29:31.330Z,102953.97
2023-02-05T05:32:00.414Z,102948.81
2023-02-05T05:34:31.475Z,102950.75
2023-02-05T05:37:00.747Z,102951.66
2023-02-05T05:39:50.298Z,102952.28
2023-02-05T05:42:37.200Z,102956.41
2023-02-05T05:45:09.781Z,102964.00
2023-02-05T05:47:43.477Z,102958.75
2023-02-05T05:50:21.332Z,102951.00
2023-02-05T05:52:52.828Z,102957.16
2023-02-05T05:55:21.987Z,102956.28
2023-02-05T05:57:51.028Z,102963.00
2023-02-05T06:00:21.843Z,102967.47
2023-02-05T06:02:51.501Z,102964.13
2023-02-05T06:05:28.175Z,102963.22
2023-02-05T06:08:01.123Z,102970.97
2023-02-05T06:10:36.536Z,102978.84
2023-02-05T06:13:06.203Z,102989.53
2023-02-05T06:15:36.490Z,102988.09
2023-02-05T06:18:05.903Z,102994.31
2023-02-05T06:20:36.180Z,102996.47
2023-02-05T06:23:05.006Z,102999.19
2023-02-05T06:25:36.451Z,102999.31
2023-02-05T06:28:07.518Z,102998.81
2023-02-05T06:30:39.382Z,102986.03
2023-02-05T06:33:16.141Z,102975.72
2023-02-05T06:35:52.269Z,102978.81
2023-02-05T06:38:21.570Z,102971.31
2023-02-05T06:40:54.245Z,102971.72
2023-02-05T06:43:31.518Z,102976.44
2023-02-05T06:46:00.720Z,102988.59
2023-02-05T06:48:34.089Z,102994.25
2023-02-05T06:51:13.482Z,102993.25
2023-02-05T06:53:42.270Z,102999.81
2023-02-05T06:56:11.014Z,103002.88
2023-02-05T06:58:42.129Z,103003.41
2023-02-05T07:01:12.972Z,103004.94
2023-02-05T07:03:43.800Z,103006.97
2023-02-05T07:06:16.379Z,103001.53
2023-02-05T07:08:50.762Z,102997.66
2023-02-05T07:11:24.359Z,103004.56
2023-02-05T07:13:55.391Z,103016.00
2023-02-05T07:16:24.506Z,103014.94
2023-02-05T07:18:53.482Z,103018.13
2023-02-05T07:21:27.860Z,103021.78
2023-02-05T07:23:56.722Z,103027.41
2023-02-05T07:26:27.726Z,103021.56
2023-02-05T07:28:56.588Z,103018.41
2023-02-05T07:31:31.481Z,103010.94
2023-02-05T07:34:02.372Z,103009.38
2023-02-05T07:36:37.205Z,103012.75
2023-02-05T07:39:06.224Z,103007.00
2023-02-05T07:41:36.444Z,102996.69
2023-02-05T07:44:07.380Z,102994.31
2023-02-05T07:46:41.344Z,103003.81
2023-02-05T07:49:11.541Z,102997.47
2023-02-05T07:51:41.982Z,103002.41
2023-02-05T07:54:12.392Z,103002.53
2023-02-05T07:56:41.583Z,103011.84
2023-02-05T07:59:11.637Z,103012.03
2023-02-05T08:01:40.701Z,103006.84
2023-02-05T08:04:10.099Z,103002.56
2023-02-05T08:06:47.341Z,102995.44
2023-02-05T08:09:17.001Z,102991.97
2023-02-05T08:11:46.433Z,102988.25
2023-02-05T08:14:15.707Z,102992.63
2023-02-05T08:16:46.880Z,102992.41
2023-02-05T08:19:17.998Z,102992.19
2023-02-05T08:21:57.866Z,102994.38
2023-02-05T08:24:27.799Z,102992.69
2023-02-05T08:26:59.275Z,102987.47
2023-02-05T08:29:28.702Z,102987.94
2023-02-05T08:32:02.035Z,102984.50
2023-02-05T08:34:31.522Z,102972.34
2023-02-05T08:37:04.507Z,102971.56
2023-02-05T08:39:34.015Z,102973.28
2023-02-05T08:42:07.720Z,102980.75
2023-02-05T08:44:41.366Z,102978.88
2023-02-05T08:47:10.525Z,102985.34
2023-02-05T08:49:42.859Z,102976.97
2023-02-05T08:52:14.408Z,102975.03
2023-02-05T08:54:49.485Z,102971.69
2023-02-05T08:57:26.261Z,102965.94
2023-02-05T09:00:23.858Z,102964.75
2023-02-05T09:02:57.709Z,102962.84
2023-02-05T09:05:37.115Z,102949.69
2023-02-05T09:08:11.560Z,102958.81
2023-02-05T09:10:42.726Z,102956.50
2023-02-05T09:13:13.514Z,102965.63
2023-02-05T09:15:44.211Z,102967.06
2023-02-05T09:18:16.369Z,102973.41
2023-02-05T09:20:49.155Z,102972.88
2023-02-05T09:23:23.974Z,102967.69
2023-02-05T09:25:54.629Z,102966.97
2023-02-05T09:28:26.108Z,102962.97
2023-02-05T09:32:01.481Z,102955.22
2023-02-05T09:34:51.596Z,102960.31
2023-02-05T09:37:21.184Z,102957.22
2023-02-05T09:40:20.204Z,102959.97
2023-02-05T09:42:58.960Z,102969.88
2023-02-05T09:45:42.300Z,102969.28
2023-02-05T09:49:23.204Z,102973.09
2023-02-05T09:52:41.473Z,102969.19
2023-02-05T09:59:29.409Z,102945.72
2023-02-05T10:02:00.536Z,102938.69
2023-02-05T10:04:30.482Z,102940.03
2023-02-05T10:07:28.781Z,102931.88
2023-02-05T10:10:22.471Z,102932.00
2023-02-05T10:13:19.993Z,102930.72
2023-02-05T10:16:25.336Z,102930.78
2023-02-05T10:19:15.621Z,102923.16
2023-02-05T10:22:02.833Z,102928.00
2023-02-05T10:24:50.180Z,102934.56
2023-02-05T10:27:23.078Z,102929.66
2023-02-05T10:30:02.508Z,102923.59
2023-02-05T10:32:47.043Z,102913.31
2023-02-05T10:35:26.468Z,102920.09
2023-02-05T10:37:57.991Z,102920.25
2023-02-05T10:40:36.362Z,102917.19
2023-02-05T10:43:19.257Z,102913.97
2023-02-05T10:45:48.587Z,102910.53
2023-02-05T10:48:41.396Z,102829.94
2023-02-05T10:51:37.477Z,102895.22
2023-02-05T10:54:14.735Z,102904.94
2023-02-05T10:56:53.469Z,102903.16
2023-02-05T10:59:29.102Z,102897.94
2023-02-05T11:02:04.053Z,102894.56
2023-02-05T11:04:49.258Z,102906.53
2023-02-05T11:07:26.657Z,102901.66
2023-02-05T11:09:56.959Z,102894.25
2023-02-05T11:12:31.191Z,102904.69
2023-02-05T11:19:23.009Z,102903.44
2023-02-05T11:22:38.918Z,102909.94
2023-02-05T11:25:16.004Z,102914.81
2023-02-05T11:27:54.642Z,102907.78
2023-02-05T11:30:50.114Z,102903.69
2023-02-05T11:33:31.403Z,102890.78
2023-02-05T11:36:03.463Z,102885.47
2023-02-05T11:38:39.947Z,102875.19
2023-02-05T11:41:11.394Z,102872.69
2023-02-05T11:43:42.120Z,102876.53
2023-02-05T11:46:16.509Z,102868.47
2023-02-05T11:48:49.723Z,102871.31
2023-02-05T11:51:39.960Z,102863.47
2023-02-05T11:54:21.519Z,102859.28
2023-02-05T11:57:34.350Z,102864.38
2023-02-05T12:00:19.756Z,102855.44
2023-02-05T12:02:54.583Z,102855.53
2023-02-05T12:05:28.427Z,102861.78
2023-02-05T12:08:09.400Z,102866.47
2023-02-05T12:10:48.228Z,102873.44
2023-02-05T12:13:25.829Z,102868.88
2023-02-05T12:16:07.195Z,102865.00
2023-02-05T12:18:50.565Z,102864.38
2023-02-05T12:21:33.070Z,102860.19
2023-02-05T12:24:30.790Z,102861.69
2023-02-05T12:27:15.303Z,102860.91
2023-02-05T12:30:05.307Z,102863.00
2023-02-05T12:33:16.395Z,102863.09
2023-02-05T12:36:03.484Z,102868.22
2023-02-05T12:42:29.158Z,102873.28
2023-02-05T12:45:25.322Z,102879.13
2023-02-05T12:48:25.881Z,102873.19
2023-02-05T12:51:06.479Z,102867.66
2023-02-05T12:54:08.048Z,102863.00
2023-02-05T12:56:58.534Z,102852.38
2023-02-05T13:00:33.458Z,102862.59
2023-02-05T13:06:59.879Z,102853.81
2023-02-05T13:09:53.912Z,102852.50
2023-02-05T13:13:10.844Z,102852.91
2023-02-05T13:18:48.139Z,102863.63
2023-02-05T13:21:38.049Z,102866.31
2023-02-05T13:24:40.456Z,102870.56
2023-02-05T13:27:40.604Z,102867.88
2023-02-05T13:30:16.458Z,102873.94
2023-02-05T13:32:49.668Z,102865.00
2023-02-05T13:35:22.356Z,102876.44
2023-02-05T13:38:17.566Z,102870.28
2023-02-05T13:41:21.761Z,102882.47
2023-02-05T13:44:14.584Z,102886.03
2023-02-05T13:47:22.533Z,102892.25
2023-02-05T13:50:29.198Z,102879.97
2023-02-05T13:53:27.843Z,102890.25
2023-02-05T13:56:41.664Z,102893.00
2023-02-05T13:59:18.113Z,102886.91
2023-02-05T14:01:58.316Z,102884.56
2023-02-05T14:04:34.019Z,102890.91
2023-02-05T14:07:08.558Z,102892.84
2023-02-05T14:09:42.639Z,102889.34
2023-02-05T14:12:14.121Z,102887.53
2023-02-05T14:15:27.427Z,102883.13
2023-02-05T14:18:00.256Z,102873.00
2023-02-05T14:20:35.772Z,102873.22
2023-02-05T14:23:20.965Z,102874.47
2023-02-05T14:26:11.521Z,102867.38
2023-02-05T14:29:06.243Z,102868.66
2023-02-05T14:32:00.434Z,102868.25
2023-02-05T14:35:01.142Z,102883.47
2023-02-05T14:37:55.558Z,102889.97
2023-02-05T14:40:30.878Z,102895.75
2023-02-05T14:43:10.479Z,102895.66
2023-02-05T14:45:48.690Z,102901.06
2023-02-05T14:48:31.672Z,102906.53
2023-02-05T14:51:18.364Z,102901.19
2023-02-05T14:54:10.178Z,102887.88
2023-02-05T15:01:45.527Z,102893.69
2023-02-05T15:04:42.837Z,102887.88
2023-02-05T15:11:06.024Z,102881.28
2023-02-05T15:13:42.392Z,102886.09
2023-02-05T15:17:33.219Z,102886.31
2023-02-05T15:20:34.936Z,102883.78
2023-02-05T15:28:17.757Z,102871.34
2023-02-05T15:30:54.338Z,102871.84
2023-02-05T15:45:05.611Z,102877.34
2023-02-05T15:52:39.712Z,102873.91
2023-02-05T16:03:00.290Z,102886.81
2023-02-05T16:05:55.312Z,102889.78
2023-02-05T16:09:03.165Z,102900.09
2023-02-05T16:12:36.515Z,102907.31
2023-02-05T16:16:24.340Z,102903.72
2023-02-05T16:19:08.287Z,102925.19
2023-02-05T16:21:42.727Z,102928.84
2023-02-05T16:24:23.278Z,102923.91
2023-02-05T16:27:02.431Z,102935.50
2023-02-05T16:29:47.735Z,102938.50
2023-02-05T16:32:25.287Z,102942.44
2023-02-05T16:34:56.043Z,102948.75
2023-02-05T16:37:32.724Z,102954.25
2023-02-05T16:40:06.122Z,102892.34
2023-02-05T16:42:45.135Z,102948.47
2023-02-05T16:45:31.250Z,102964.38
2023-02-05T16:48:23.241Z,102964.19
2023-02-05T16:50:59.392Z,102956.44
2023-02-05T16:54:09.600Z,102958.38
2023-02-05T18:10:32.555Z,102951.44
2023-02-05T18:13:03.193Z,102957.00
2023-02-05T18:15:36.998Z,102960.41
2023-02-05T18:18:08.290Z,102949.13
2023-02-05T18:21:33.642Z,102956.53
2023-02-05T18:24:11.750Z,102959.13
2023-02-05T18:26:42.724Z,102959.81
2023-02-05T18:29:19.130Z,102966.69
2023-02-05T18:31:48.591Z,102958.31
2023-02-05T18:34:35.743Z,102949.75
2023-02-05T18:37:13.667Z,102947.38
2023-02-05T18:39:44.093Z,102955.72
2023-02-05T18:42:17.958Z,102964.91
2023-02-05T18:44:50.478Z,102966.75
2023-02-05T18:47:19.592Z,102969.00
2023-02-05T18:49:54.835Z,102977.59
2023-02-05T18:52:26.698Z,102984.25
2023-02-05T18:54:55.762Z,102984.13
2023-02-05T18:57:28.128Z,102990.81
2023-02-05T18:59:59.354Z,102994.38
2023-02-05T19:02:29.768Z,102988.06
2023-02-05T19:05:01.683Z,102993.94
2023-02-05T19:07:35.092Z,102995.81
2023-02-05T19:10:04.302Z,102995.94
2023-02-05T19:12:35.535Z,102991.78
2023-02-05T19:15:04.902Z,102989.28
2023-02-05T19:17:33.925Z,102986.34
2023-02-05T19:20:15.917Z,102988.06
2023-02-05T19:22:45.098Z,102985.91
2023-02-05T19:25:15.764Z,102985.69
2023-02-05T19:27:46.190Z,102992.34
2023-02-05T19:30:15.877Z,102989.53
2023-02-05T19:32:44.706Z,102983.22
2023-02-05T19:35:13.923Z,102984.94
2023-02-05T19:37:48.784Z,102993.59
2023-02-05T19:41:18.353Z,102990.09
2023-02-05T19:43:51.502Z,102989.31
2023-02-05T19:46:23.299Z,102988.41
2023-02-05T19:49:02.988Z,102988.31
2023-02-05T19:51:32.014Z,102995.66
2023-02-05T19:54:04.242Z,103006.81
2023-02-05T19:56:35.667Z,102991.97
2023-02-05T19:59:10.074Z,102995.00
2023-02-05T20:01:47.980Z,103000.56
2023-02-05T20:04:28.867Z,103001.47
2023-02-05T20:07:01.943Z,103002.28
2023-02-05T20:10:02.506Z,103003.97
2023-02-05T20:12:51.242Z,103002.94
2023-02-05T20:15:57.149Z,103007.81
2023-02-05T20:18:30.310Z,103004.63
2023-02-05T20:21:15.400Z,103004.97
2023-02-05T20:23:51.063Z,103004.09
2023-02-05T20:26:24.303Z,103006.22
2023-02-05T20:29:17.226Z,103003.19
2023-02-05T20:31:49.763Z,102997.47
2023-02-05T20:34:23.181Z,103005.88
2023-02-05T20:37:04.100Z,103007.34
2023-02-05T20:39:43.049Z,103020.84
2023-02-05T20:42:24.576Z,103020.63
2023-02-05T20:45:03.857Z,103018.34
2023-02-05T20:47:34.427Z,103024.19
2023-02-05T20:50:04.307Z,103033.44
2023-02-05T20:52:35.243Z,103037.81
2023-02-05T20:55:04.106Z,103029.81
2023-02-05T20:57:44.778Z,103037.34
2023-02-05T21:00:41.360Z,103042.63
2023-02-05T21:03:13.813Z,103031.63
2023-02-05T21:05:43.075Z,103022.88
2023-02-05T21:08:13.476Z,103027.84
2023-02-05T21:10:42.548Z,103026.25
2023-02-05T21:13:18.081Z,103034.69
2023-02-05T21:15:59.831Z,103046.63
2023-02-05T21:18:31.106Z,103045.13
2023-02-05T21:21:07.929Z,103036.59
2023-02-05T21:23:38.885Z,103038.59
2023-02-05T21:26:12.622Z,103037.94
2023-02-05T21:28:43.351Z,103037.16
2023-02-05T21:31:12.658Z,103046.50
2023-02-05T21:33:44.509Z,103043.00
2023-02-05T21:36:15.830Z,103030.50
2023-02-05T21:38:44.694Z,103032.66
2023-02-05T21:41:21.828Z,103036.81
2023-02-05T21:43:51.359Z,103046.91
2023-02-05T21:46:20.444Z,103048.91
2023-02-05T21:48:59.948Z,103068.59
2023-02-05T21:51:35.311Z,103079.06
2023-02-05T21:54:08.937Z,103080.88
2023-02-05T21:56:45.311Z,103083.78
2023-02-05T21:59:17.794Z,103077.09
2023-02-05T22:01:47.964Z,103073.81
2023-02-05T22:04:20.953Z,103067.34
2023-02-05T22:06:52.402Z,103063.78
2023-02-05T22:09:26.450Z,103059.97
2023-02-05T22:11:56.441Z,103072.47
2023-02-05T22:14:33.390Z,103079.19
2023-02-05T22:17:02.400Z,103087.50
2023-02-05T22:19:32.679Z,103081.88
2023-02-05T22:22:01.359Z,103081.06
2023-02-05T22:24:30.105Z,103085.25
2023-02-05T22:26:59.193Z,103091.72
2023-02-05T22:29:30.040Z,103105.19
2023-02-05T22:32:00.407Z,103109.22
2023-02-05T22:34:33.609Z,103110.69
2023-02-05T22:37:09.327Z,103118.81
2023-02-05T22:39:43.827Z,103120.28
2023-02-05T22:42:12.676Z,103108.34
2023-02-05T22:44:43.692Z,103115.47
2023-02-05T22:47:20.634Z,103107.44
2023-02-05T22:49:51.146Z,103105.16
2023-02-05T22:52:21.335Z,103114.47
2023-02-05T22:54:52.963Z,103116.69
2023-02-05T22:57:21.907Z,103112.06
2023-02-05T22:59:50.762Z,103113.50
2023-02-05T23:02:19.447Z,103116.34
2023-02-05T23:04:48.240Z,103116.44
2023-02-05T23:07:16.964Z,103113.50
2023-02-05T23:09:47.162Z,103111.44
2023-02-05T23:12:15.919Z,103106.19
2023-02-05T23:14:46.575Z,103106.69
2023-02-05T23:17:15.298Z,103104.75
2023-02-05T23:19:47.056Z,103110.19
2023-02-05T23:22:23.737Z,103109.28
2023-02-05T23:24:58.142Z,103120.25
2023-02-05T23:27:30.508Z,103119.34
2023-02-05T23:29:59.377Z,103118.56
2023-02-05T23:32:30.246Z,103113.66
2023-02-05T23:35:00.813Z,103113.66
2023-02-05T23:37:29.724Z,103111.50
2023-02-05T23:40:02.325Z,103112.03
2023-02-05T23:42:31.180Z,103107.50
2023-02-05T23:45:02.116Z,103107.63
2023-02-05T23:47:38.432Z,103101.44
2023-02-05T23:50:10.979Z,103084.25
2023-02-05T23:52:41.656Z,103071.09
2023-02-05T23:55:11.938Z,103074.22
2023-02-05T23:57:42.373Z,103085.31
